sensor_id;sensor_type;location;lat;lon;timestamp;pressure;altitude;pressure_sealevel;temperature;humidity
11314;BME280;5712;48.858;9.206;2023-03-23T00:01:59;97529.94;;;13.19;60.89
11314;BME280;5712;48.858;9.206;2023-03-23T00:04:25;97528.28;;;13.18;61.05
11314;BME280;5712;48.858;9.206;2023-03-23T00:06:52;97534.69;;;13.15;61.27
11314;BME280;5712;48.858;9.206;2023-03-23T00:09:19;97532.19;;;13.14;61.68
11314;BME280;5712;48.858;9.206;2023-03-23T00:11:51;97522.97;;;13.18;60.66
11314;BME280;5712;48.858;9.206;2023-03-23T00:14:31;97524.81;;;13.17;60.70
11314;BME280;5712;48.858;9.206;2023-03-23T00:17:06;97516.13;;;13.25;59.98
11314;BME280;5712;48.858;9.206;2023-03-23T00:19:35;97529.16;;;13.28;61.15
11314;BME280;5712;48.858;9.206;2023-03-23T00:22:12;97525.81;;;13.35;61.30
11314;BME280;5712;48.858;9.206;2023-03-23T00:24:39;97521.63;;;13.33;60.33
11314;BME280;5712;48.858;9.206;2023-03-23T00:27:07;97501.50;;;13.40;60.39
11314;BME280;5712;48.858;9.206;2023-03-23T00:29:38;97512.13;;;13.40;60.45
11314;BME280;5712;48.858;9.206;2023-03-23T00:32:04;97515.47;;;13.42;60.70
11314;BME280;5712;48.858;9.206;2023-03-23T00:34:31;97505.69;;;13.42;60.74
11314;BME280;5712;48.858;9.206;2023-03-23T00:36:59;97503.59;;;13.46;60.78
11314;BME280;5712;48.858;9.206;2023-03-23T00:39:27;97503.75;;;13.44;60.93
11314;BME280;5712;48.858;9.206;2023-03-23T00:41:54;97492.00;;;13.47;60.32
11314;BME280;5712;48.858;9.206;2023-03-23T00:44:27;97491.75;;;13.50;60.44
11314;BME280;5712;48.858;9.206;2023-03-23T00:46:54;97481.38;;;13.47;60.69
11314;BME280;5712;48.858;9.206;2023-03-23T00:49:22;97495.91;;;13.43;60.89
11314;BME280;5712;48.858;9.206;2023-03-23T00:51:51;97488.38;;;13.48;60.76
11314;BME280;5712;48.858;9.206;2023-03-23T00:54:17;97482.50;;;13.44;60.84
11314;BME280;5712;48.858;9.206;2023-03-23T00:56:44;97488.91;;;13.42;60.87
11314;BME280;5712;48.858;9.206;2023-03-23T00:59:11;97480.84;;;13.43;60.39
11314;BME280;5712;48.858;9.206;2023-03-23T01:01:39;97474.66;;;13.43;61.04
11314;BME280;5712;48.858;9.206;2023-03-23T01:04:06;97467.13;;;13.48;60.39
11314;BME280;5712;48.858;9.206;2023-03-23T01:06:34;97459.59;;;13.53;60.04
11314;BME280;5712;48.858;9.206;2023-03-23T01:09:04;97463.50;;;13.49;59.98
11314;BME280;5712;48.858;9.206;2023-03-23T01:11:31;97465.19;;;13.50;59.91
11314;BME280;5712;48.858;9.206;2023-03-23T01:13:59;97469.09;;;13.46;60.38
11314;BME280;5712;48.858;9.206;2023-03-23T01:16:26;97465.19;;;13.50;60.39
11314;BME280;5712;48.858;9.206;2023-03-23T01:18:55;97476.94;;;13.38;60.57
11314;BME280;5712;48.858;9.206;2023-03-23T01:21:21;97462.38;;;13.42;60.88
11314;BME280;5712;48.858;9.206;2023-03-23T01:23:50;97461.00;;;13.38;61.12
11314;BME280;5712;48.858;9.206;2023-03-23T01:26:18;97461.81;;;13.29;61.29
11314;BME280;5712;48.858;9.206;2023-03-23T01:28:45;97463.78;;;13.27;61.29
11314;BME280;5712;48.858;9.206;2023-03-23T01:31:14;97460.28;;;13.17;61.60
11314;BME280;5712;48.858;9.206;2023-03-23T01:33:42;97467.53;;;13.15;61.86
11314;BME280;5712;48.858;9.206;2023-03-23T01:36:12;97463.78;;;13.08;61.76
11314;BME280;5712;48.858;9.206;2023-03-23T01:38:41;97460.69;;;13.12;61.92
11314;BME280;5712;48.858;9.206;2023-03-23T01:41:08;97451.63;;;13.15;61.17
11314;BME280;5712;48.858;9.206;2023-03-23T01:43:35;97442.94;;;13.13;60.75
11314;BME280;5712;48.858;9.206;2023-03-23T01:46:02;97448.84;;;13.07;61.43
11314;BME280;5712;48.858;9.206;2023-03-23T01:48:31;97452.84;;;13.01;61.70
11314;BME280;5712;48.858;9.206;2023-03-23T01:51:02;97453.13;;;12.98;62.66
11314;BME280;5712;48.858;9.206;2023-03-23T01:53:36;97445.03;;;13.00;62.22
11314;BME280;5712;48.858;9.206;2023-03-23T01:56:04;97454.47;;;12.93;62.59
11314;BME280;5712;48.858;9.206;2023-03-23T01:58:33;97453.22;;;12.87;63.35
11314;BME280;5712;48.858;9.206;2023-03-23T02:01:04;97456.28;;;12.83;63.32
11314;BME280;5712;48.858;9.206;2023-03-23T02:03:32;97455.56;;;12.81;63.15
11314;BME280;5712;48.858;9.206;2023-03-23T02:05:59;97449.16;;;12.83;62.90
11314;BME280;5712;48.858;9.206;2023-03-23T02:08:27;97441.31;;;12.82;62.52
11314;BME280;5712;48.858;9.206;2023-03-23T02:10:55;97431.34;;;12.95;61.21
11314;BME280;5712;48.858;9.206;2023-03-23T02:13:22;97421.28;;;12.89;61.18
11314;BME280;5712;48.858;9.206;2023-03-23T02:15:58;97427.81;;;12.85;61.00
11314;BME280;5712;48.858;9.206;2023-03-23T02:18:40;97430.47;;;12.85;61.34
11314;BME280;5712;48.858;9.206;2023-03-23T02:25:09;97419.16;;;12.83;60.76
11314;BME280;5712;48.858;9.206;2023-03-23T02:28:19;97425.97;;;12.76;61.65
11314;BME280;5712;48.858;9.206;2023-03-23T02:31:16;97422.19;;;12.78;62.12
11314;BME280;5712;48.858;9.206;2023-03-23T02:33:48;97433.78;;;12.77;61.90
11314;BME280;5712;48.858;9.206;2023-03-23T02:36:21;97420.41;;;12.79;61.92
11314;BME280;5712;48.858;9.206;2023-03-23T02:38:56;97400.31;;;12.76;61.89
11314;BME280;5712;48.858;9.206;2023-03-23T02:41:28;97388.16;;;12.83;60.54
11314;BME280;5712;48.858;9.206;2023-03-23T02:43:56;97389.81;;;12.75;61.27
11314;BME280;5712;48.858;9.206;2023-03-23T02:46:24;97386.03;;;12.68;61.55
11314;BME280;5712;48.858;9.206;2023-03-23T02:48:55;97395.53;;;12.61;61.68
11314;BME280;5712;48.858;9.206;2023-03-23T02:51:24;97392.00;;;12.51;61.99
11314;BME280;5712;48.858;9.206;2023-03-23T02:53:53;97391.84;;;12.43;62.59
11314;BME280;5712;48.858;9.206;2023-03-23T02:56:23;97394.34;;;12.35;62.87
11314;BME280;5712;48.858;9.206;2023-03-23T02:58:51;97385.25;;;12.28;63.64
11314;BME280;5712;48.858;9.206;2023-03-23T03:04:22;97388.47;;;12.31;63.40
11314;BME280;5712;48.858;9.206;2023-03-23T03:06:59;97388.31;;;12.33;63.56
11314;BME280;5712;48.858;9.206;2023-03-23T03:09:33;97386.41;;;12.35;63.67
11314;BME280;5712;48.858;9.206;2023-03-23T03:12:06;97390.72;;;12.36;64.36
11314;BME280;5712;48.858;9.206;2023-03-23T03:14:37;97390.72;;;12.36;64.89
11314;BME280;5712;48.858;9.206;2023-03-23T03:17:11;97389.50;;;12.40;64.72
11314;BME280;5712;48.858;9.206;2023-03-23T03:19:43;97387.78;;;12.39;65.02
11314;BME280;5712;48.858;9.206;2023-03-23T03:22:12;97388.50;;;12.41;65.30
11314;BME280;5712;48.858;9.206;2023-03-23T03:24:41;97388.34;;;12.42;65.34
11314;BME280;5712;48.858;9.206;2023-03-23T03:27:11;97392.41;;;12.46;65.57
11314;BME280;5712;48.858;9.206;2023-03-23T03:29:44;97399.53;;;12.46;65.39
11314;BME280;5712;48.858;9.206;2023-03-23T03:32:16;97402.19;;;12.46;65.64
11314;BME280;5712;48.858;9.206;2023-03-23T03:34:45;97389.34;;;12.51;65.51
11314;BME280;5712;48.858;9.206;2023-03-23T03:37:13;97394.53;;;12.52;64.85
11314;BME280;5712;48.858;9.206;2023-03-23T03:39:40;97388.00;;;12.56;64.78
11314;BME280;5712;48.858;9.206;2023-03-23T03:42:07;97390.75;;;12.55;65.03
11314;BME280;5712;48.858;9.206;2023-03-23T03:44:33;97396.06;;;12.55;64.95
11314;BME280;5712;48.858;9.206;2023-03-23T03:47:00;97383.25;;;12.60;64.25
11314;BME280;5712;48.858;9.206;2023-03-23T03:49:27;97388.00;;;12.56;65.00
11314;BME280;5712;48.858;9.206;2023-03-23T03:51:55;97385.34;;;12.56;64.99
11314;BME280;5712;48.858;9.206;2023-03-23T03:54:21;97383.25;;;12.60;65.12
11314;BME280;5712;48.858;9.206;2023-03-23T03:56:48;97381.59;;;12.59;64.55
11314;BME280;5712;48.858;9.206;2023-03-23T03:59:17;97374.56;;;12.58;64.86
11314;BME280;5712;48.858;9.206;2023-03-23T04:01:43;97377.94;;;12.60;64.85
11314;BME280;5712;48.858;9.206;2023-03-23T04:04:09;97376.28;;;12.59;64.71
11314;BME280;5712;48.858;9.206;2023-03-23T04:06:36;97375.72;;;12.55;64.67
11314;BME280;5712;48.858;9.206;2023-03-23T04:09:05;97376.41;;;12.57;64.72
11314;BME280;5712;48.858;9.206;2023-03-23T04:11:32;97382.69;;;12.56;64.79
11314;BME280;5712;48.858;9.206;2023-03-23T04:13:59;97387.00;;;12.57;65.27
11314;BME280;5712;48.858;9.206;2023-03-23T04:16:25;97377.22;;;12.58;65.27
11314;BME280;5712;48.858;9.206;2023-03-23T04:18:54;97377.22;;;12.58;65.46
11314;BME280;5712;48.858;9.206;2023-03-23T04:21:23;97386.31;;;12.55;65.52
11314;BME280;5712;48.858;9.206;2023-03-23T04:23:54;97394.84;;;12.59;64.81
11314;BME280;5712;48.858;9.206;2023-03-23T04:26:22;97393.97;;;12.58;65.06
11314;BME280;5712;48.858;9.206;2023-03-23T04:28:48;97395.09;;;12.56;65.79
11314;BME280;5712;48.858;9.206;2023-03-23T04:31:15;97400.25;;;12.57;66.56
11314;BME280;5712;48.858;9.206;2023-03-23T04:33:42;97403.03;;;12.56;67.28
11314;BME280;5712;48.858;9.206;2023-03-23T04:36:08;97398.03;;;12.53;67.98
11314;BME280;5712;48.858;9.206;2023-03-23T04:38:35;97398.03;;;12.53;68.03
11314;BME280;5712;48.858;9.206;2023-03-23T04:41:01;97401.50;;;12.53;68.05
11314;BME280;5712;48.858;9.206;2023-03-23T04:43:30;97387.13;;;12.56;66.93
11314;BME280;5712;48.858;9.206;2023-03-23T04:45:58;97388.13;;;12.55;67.13
11314;BME280;5712;48.858;9.206;2023-03-23T04:48:29;97385.47;;;12.55;67.67
11314;BME280;5712;48.858;9.206;2023-03-23T04:50:58;97392.72;;;12.53;67.61
11314;BME280;5712;48.858;9.206;2023-03-23T04:53:25;97384.22;;;12.49;67.35
11314;BME280;5712;48.858;9.206;2023-03-23T04:55:52;97388.53;;;12.50;66.39
11314;BME280;5712;48.858;9.206;2023-03-23T04:58:18;97401.78;;;12.50;66.84
11314;BME280;5712;48.858;9.206;2023-03-23T05:00:47;97389.91;;;12.54;66.30
11314;BME280;5712;48.858;9.206;2023-03-23T05:03:14;97391.75;;;12.54;66.28
11314;BME280;5712;48.858;9.206;2023-03-23T05:05:42;97391.63;;;12.55;66.92
11314;BME280;5712;48.858;9.206;2023-03-23T05:08:12;97386.88;;;12.59;66.40
11314;BME280;5712;48.858;9.206;2023-03-23T05:10:38;97380.72;;;12.58;66.72
11314;BME280;5712;48.858;9.206;2023-03-23T05:13:05;97385.19;;;12.58;66.27
11314;BME280;5712;48.858;9.206;2023-03-23T05:15:31;97382.97;;;12.63;66.07
11314;BME280;5712;48.858;9.206;2023-03-23T05:17:59;97387.44;;;12.62;66.15
11314;BME280;5712;48.858;9.206;2023-03-23T05:20:26;97381.03;;;12.65;65.97
11314;BME280;5712;48.858;9.206;2023-03-23T05:22:53;97379.94;;;12.67;66.32
11314;BME280;5712;48.858;9.206;2023-03-23T05:25:21;97389.38;;;12.70;65.72
11314;BME280;5712;48.858;9.206;2023-03-23T05:27:48;97377.97;;;12.69;65.81
11314;BME280;5712;48.858;9.206;2023-03-23T05:32:46;97374.91;;;12.74;65.40
11314;BME280;5712;48.858;9.206;2023-03-23T05:35:18;97382.16;;;12.72;65.64
11314;BME280;5712;48.858;9.206;2023-03-23T05:37:45;97375.59;;;12.76;66.02
11314;BME280;5712;48.858;9.206;2023-03-23T05:40:12;97377.53;;;12.74;66.03
11314;BME280;5712;48.858;9.206;2023-03-23T05:42:40;97366.81;;;12.75;66.13
11314;BME280;5712;48.858;9.206;2023-03-23T05:45:09;97381.47;;;12.79;65.66
11314;BME280;5712;48.858;9.206;2023-03-23T05:47:36;97372.94;;;12.85;65.22
11314;BME280;5712;48.858;9.206;2023-03-23T05:50:03;97369.59;;;12.93;64.71
11314;BME280;5712;48.858;9.206;2023-03-23T05:52:31;97368.81;;;13.02;65.41
11314;BME280;5712;48.858;9.206;2023-03-23T05:55:01;97369.63;;;13.12;64.25
11314;BME280;5712;48.858;9.206;2023-03-23T05:57:28;97368.50;;;13.24;63.56
11314;BME280;5712;48.858;9.206;2023-03-23T05:59:55;97373.25;;;13.30;63.37
11314;BME280;5712;48.858;9.206;2023-03-23T06:02:22;97372.28;;;13.40;63.07
11314;BME280;5712;48.858;9.206;2023-03-23T06:04:50;97384.41;;;13.43;63.20
11314;BME280;5712;48.858;9.206;2023-03-23T06:07:22;97386.81;;;13.46;63.23
11314;BME280;5712;48.858;9.206;2023-03-23T06:09:51;97399.41;;;13.44;63.63
11314;BME280;5712;48.858;9.206;2023-03-23T06:12:17;97396.19;;;13.50;63.73
11314;BME280;5712;48.858;9.206;2023-03-23T06:14:45;97402.16;;;13.52;63.30
11314;BME280;5712;48.858;9.206;2023-03-23T06:17:11;97410.13;;;13.52;63.30
11314;BME280;5712;48.858;9.206;2023-03-23T06:19:38;97415.44;;;13.52;63.74
11314;BME280;5712;48.858;9.206;2023-03-23T06:22:05;97419.09;;;13.51;64.36
11314;BME280;5712;48.858;9.206;2023-03-23T06:24:31;97421.31;;;13.46;65.26
11314;BME280;5712;48.858;9.206;2023-03-23T06:27:00;97426.31;;;13.49;65.17
11314;BME280;5712;48.858;9.206;2023-03-23T06:29:27;97429.28;;;13.46;64.55
11314;BME280;5712;48.858;9.206;2023-03-23T06:31:56;97416.81;;;13.46;63.44
11314;BME280;5712;48.858;9.206;2023-03-23T06:34:24;97426.31;;;13.49;63.08
11314;BME280;5712;48.858;9.206;2023-03-23T06:36:50;97420.75;;;13.52;63.49
11314;BME280;5712;48.858;9.206;2023-03-23T06:39:17;97422.41;;;13.53;63.25
11314;BME280;5712;48.858;9.206;2023-03-23T06:41:44;97425.75;;;13.55;63.84
11314;BME280;5712;48.858;9.206;2023-03-23T06:44:12;97432.63;;;13.57;64.43
11314;BME280;5712;48.858;9.206;2023-03-23T06:46:39;97448.97;;;13.53;65.25
11314;BME280;5712;48.858;9.206;2023-03-23T06:49:07;97446.31;;;13.53;65.83
11314;BME280;5712;48.858;9.206;2023-03-23T06:51:34;97450.38;;;13.57;65.61
11314;BME280;5712;48.858;9.206;2023-03-23T06:54:00;97438.91;;;13.66;63.84
11314;BME280;5712;48.858;9.206;2023-03-23T06:56:27;97442.81;;;13.81;63.72
11314;BME280;5712;48.858;9.206;2023-03-23T06:58:53;97439.38;;;13.98;63.83
11314;BME280;5712;48.858;9.206;2023-03-23T07:01:21;97448.88;;;14.10;63.80
11314;BME280;5712;48.858;9.206;2023-03-23T07:03:48;97442.75;;;14.19;63.85
11314;BME280;5712;48.858;9.206;2023-03-23T07:06:15;97444.13;;;14.23;63.33
11314;BME280;5712;48.858;9.206;2023-03-23T07:08:41;97456.44;;;14.24;63.57
11314;BME280;5712;48.858;9.206;2023-03-23T07:11:08;97455.59;;;14.23;63.86
11314;BME280;5712;48.858;9.206;2023-03-23T07:13:35;97456.72;;;14.21;63.86
11314;BME280;5712;48.858;9.206;2023-03-23T07:16:05;97453.06;;;14.22;64.24
11314;BME280;5712;48.858;9.206;2023-03-23T07:18:33;97451.66;;;14.18;63.35
11314;BME280;5712;48.858;9.206;2023-03-23T07:21:00;97460.91;;;14.14;62.63
11314;BME280;5712;48.858;9.206;2023-03-23T07:23:28;97458.25;;;14.14;62.13
11314;BME280;5712;48.858;9.206;2023-03-23T07:25:55;97453.59;;;14.16;61.63
11314;BME280;5712;48.858;9.206;2023-03-23T07:28:22;97461.56;;;14.16;61.86
11314;BME280;5712;48.858;9.206;2023-03-23T07:30:49;97466.91;;;14.16;61.35
11314;BME280;5712;48.858;9.206;2023-03-23T07:33:15;97465.66;;;14.20;61.16
11314;BME280;5712;48.858;9.206;2023-03-23T07:35:43;97479.94;;;14.19;61.57
11314;BME280;5712;48.858;9.206;2023-03-23T07:38:11;97495.88;;;14.19;62.37
11314;BME280;5712;48.858;9.206;2023-03-23T07:40:37;97498.66;;;14.17;62.42
11314;BME280;5712;48.858;9.206;2023-03-23T07:43:04;97509.88;;;14.21;62.58
11314;BME280;5712;48.858;9.206;2023-03-23T07:45:31;97493.91;;;14.21;62.08
11314;BME280;5712;48.858;9.206;2023-03-23T07:47:58;97504.69;;;14.29;61.90
11314;BME280;5712;48.858;9.206;2023-03-23T07:50:25;97497.63;;;14.37;61.58
11314;BME280;5712;48.858;9.206;2023-03-23T07:52:55;97490.22;;;14.50;60.63
11314;BME280;5712;48.858;9.206;2023-03-23T07:55:23;97486.47;;;14.70;60.26
11314;BME280;5712;48.858;9.206;2023-03-23T07:57:51;97481.59;;;14.93;59.67
11314;BME280;5712;48.858;9.206;2023-03-23T08:00:19;97485.81;;;15.13;59.64
11314;BME280;5712;48.858;9.206;2023-03-23T08:02:50;97478.47;;;15.24;59.55
11314;BME280;5712;48.858;9.206;2023-03-23T08:05:17;97486.59;;;15.23;59.56
11314;BME280;5712;48.858;9.206;2023-03-23T08:07:44;97493.19;;;15.19;59.61
11314;BME280;5712;48.858;9.206;2023-03-23T08:10:13;97508.34;;;15.18;60.36
11314;BME280;5712;48.858;9.206;2023-03-23T08:12:41;97514.66;;;15.17;60.43
11314;BME280;5712;48.858;9.206;2023-03-23T08:15:09;97515.81;;;15.15;60.65
11314;BME280;5712;48.858;9.206;2023-03-23T08:17:38;97507.81;;;15.15;59.72
11314;BME280;5712;48.858;9.206;2023-03-23T08:20:06;97510.16;;;15.18;60.10
11314;BME280;5712;48.858;9.206;2023-03-23T08:22:38;97508.75;;;15.23;59.77
11314;BME280;5712;48.858;9.206;2023-03-23T08:25:06;97506.75;;;15.25;59.24
11314;BME280;5712;48.858;9.206;2023-03-23T08:27:35;97515.28;;;15.29;59.56
11314;BME280;5712;48.858;9.206;2023-03-23T08:30:03;97521.19;;;15.32;59.87
11314;BME280;5712;48.858;9.206;2023-03-23T08:32:32;97528.75;;;15.27;60.52
11314;BME280;5712;48.858;9.206;2023-03-23T08:34:58;97529.28;;;15.31;60.28
11314;BME280;5712;48.858;9.206;2023-03-23T08:37:25;97525.38;;;15.35;60.90
11314;BME280;5712;48.858;9.206;2023-03-23T08:39:51;97527.34;;;15.33;61.23
11314;BME280;5712;48.858;9.206;2023-03-23T08:42:18;97533.22;;;15.36;61.37
11314;BME280;5712;48.858;9.206;2023-03-23T08:44:46;97530.41;;;15.28;62.13
11314;BME280;5712;48.858;9.206;2023-03-23T08:47:13;97539.91;;;15.31;61.61
11314;BME280;5712;48.858;9.206;2023-03-23T08:49:39;97541.91;;;15.29;61.49
11314;BME280;5712;48.858;9.206;2023-03-23T08:52:08;97545.53;;;15.37;61.86
11314;BME280;5712;48.858;9.206;2023-03-23T08:54:34;97554.50;;;15.36;62.19
11314;BME280;5712;48.858;9.206;2023-03-23T08:57:02;97559.25;;;15.42;62.59
11314;BME280;5712;48.858;9.206;2023-03-23T08:59:29;97561.59;;;15.45;62.46
11314;BME280;5712;48.858;9.206;2023-03-23T09:01:57;97568.75;;;15.45;62.79
11314;BME280;5712;48.858;9.206;2023-03-23T09:04:23;97573.28;;;15.35;63.04
11314;BME280;5712;48.858;9.206;2023-03-23T09:06:50;97561.81;;;15.25;62.92
11314;BME280;5712;48.858;9.206;2023-03-23T09:09:16;97563.47;;;15.26;64.11
11314;BME280;5712;48.858;9.206;2023-03-23T09:11:43;97567.31;;;15.23;63.90
11314;BME280;5712;48.858;9.206;2023-03-23T09:14:10;97582.03;;;15.18;64.46
11314;BME280;5712;48.858;9.206;2023-03-23T09:16:37;97576.44;;;15.21;65.37
11314;BME280;5712;48.858;9.206;2023-03-23T09:19:06;97583.16;;;15.15;64.48
11314;BME280;5712;48.858;9.206;2023-03-23T09:21:34;97590.03;;;15.18;65.17
11314;BME280;5712;48.858;9.206;2023-03-23T09:24:01;97583.56;;;15.20;64.69
11314;BME280;5712;48.858;9.206;2023-03-23T09:26:28;97579.78;;;15.23;64.52
11314;BME280;5712;48.858;9.206;2023-03-23T09:28:54;97579.63;;;15.34;64.44
11314;BME280;5712;48.858;9.206;2023-03-23T09:31:23;97590.50;;;15.40;64.50
11314;BME280;5712;48.858;9.206;2023-03-23T09:33:51;97599.41;;;15.49;64.33
11314;BME280;5712;48.858;9.206;2023-03-23T09:36:19;97606.81;;;15.55;64.42
11314;BME280;5712;48.858;9.206;2023-03-23T09:38:47;97599.22;;;15.60;63.99
11314;BME280;5712;48.858;9.206;2023-03-23T09:41:27;97594.66;;;15.70;63.40
11314;BME280;5712;48.858;9.206;2023-03-23T09:44:03;97583.09;;;15.79;62.33
11314;BME280;5712;48.858;9.206;2023-03-23T09:46:48;97595.97;;;15.83;63.31
11314;BME280;5712;48.858;9.206;2023-03-23T09:49:20;97589.50;;;15.86;61.97
11314;BME280;5712;48.858;9.206;2023-03-23T09:51:51;97593.75;;;15.79;62.54
11314;BME280;5712;48.858;9.206;2023-03-23T09:54:21;97599.63;;;15.82;63.37
11314;BME280;5712;48.858;9.206;2023-03-23T09:56:50;97596.81;;;15.84;63.30
11314;BME280;5712;48.858;9.206;2023-03-23T09:59:21;97592.53;;;15.91;62.68
11314;BME280;5712;48.858;9.206;2023-03-23T10:01:51;97600.00;;;15.87;63.02
11314;BME280;5712;48.858;9.206;2023-03-23T10:04:30;97606.25;;;15.96;62.86
11314;BME280;5712;48.858;9.206;2023-03-23T10:07:08;97608.25;;;15.94;62.56
11314;BME280;5712;48.858;9.206;2023-03-23T10:09:36;97608.84;;;15.88;62.52
11314;BME280;5712;48.858;9.206;2023-03-23T10:12:10;97606.34;;;15.86;62.83
11314;BME280;5712;48.858;9.206;2023-03-23T10:15:11;97626.25;;;15.82;63.35
11314;BME280;5712;48.858;9.206;2023-03-23T10:17:45;97618.06;;;15.93;64.40
11314;BME280;5712;48.858;9.206;2023-03-23T10:20:22;97616.47;;;16.17;63.63
11314;BME280;5712;48.858;9.206;2023-03-23T10:23:00;97625.91;;;16.29;63.04
11314;BME280;5712;48.858;9.206;2023-03-23T10:25:29;97629.78;;;16.35;63.11
11314;BME280;5712;48.858;9.206;2023-03-23T10:28:03;97622.72;;;16.43;62.45
11314;BME280;5712;48.858;9.206;2023-03-23T10:30:34;97630.78;;;16.34;62.64
11314;BME280;5712;48.858;9.206;2023-03-23T10:33:08;97635.69;;;16.38;63.06
11314;BME280;5712;48.858;9.206;2023-03-23T10:35:39;97626.59;;;16.49;62.92
11314;BME280;5712;48.858;9.206;2023-03-23T10:38:14;97628.94;;;16.69;62.75
11314;BME280;5712;48.858;9.206;2023-03-23T10:40:48;97623.34;;;16.80;62.30
11314;BME280;5712;48.858;9.206;2023-03-23T10:43:16;97609.84;;;16.82;60.82
11314;BME280;5712;48.858;9.206;2023-03-23T10:45:44;97624.00;;;16.82;61.33
11314;BME280;5712;48.858;9.206;2023-03-23T10:48:14;97623.75;;;16.68;61.50
11314;BME280;5712;48.858;9.206;2023-03-23T10:50:44;97614.09;;;16.49;62.41
11314;BME280;5712;48.858;9.206;2023-03-23T10:53:16;97629.94;;;16.33;63.32
11314;BME280;5712;48.858;9.206;2023-03-23T10:55:43;97623.47;;;16.18;63.26
11314;BME280;5712;48.858;9.206;2023-03-23T10:58:21;97630.47;;;16.19;63.73
11314;BME280;5712;48.858;9.206;2023-03-23T11:00:49;97634.13;;;16.36;64.32
11314;BME280;5712;48.858;9.206;2023-03-23T11:03:33;97614.16;;;16.57;63.15
11314;BME280;5712;48.858;9.206;2023-03-23T11:06:03;97618.25;;;16.69;62.88
11314;BME280;5712;48.858;9.206;2023-03-23T11:08:36;97621.53;;;16.63;63.08
11314;BME280;5712;48.858;9.206;2023-03-23T11:11:10;97616.59;;;16.68;62.78
11314;BME280;5712;48.858;9.206;2023-03-23T11:13:40;97619.91;;;16.70;63.86
11314;BME280;5712;48.858;9.206;2023-03-23T11:16:08;97623.53;;;16.87;63.73
11314;BME280;5712;48.858;9.206;2023-03-23T11:18:39;97623.59;;;16.95;63.11
11314;BME280;5712;48.858;9.206;2023-03-23T11:21:07;97617.34;;;16.78;63.11
11314;BME280;5712;48.858;9.206;2023-03-23T11:23:38;97609.25;;;16.70;63.55
11314;BME280;5712;48.858;9.206;2023-03-23T11:26:12;97610.91;;;16.71;63.21
11314;BME280;5712;48.858;9.206;2023-03-23T11:28:43;97617.22;;;16.62;63.61
11314;BME280;5712;48.858;9.206;2023-03-23T11:31:11;97613.00;;;16.60;63.61
11314;BME280;5712;48.858;9.206;2023-03-23T11:33:48;97615.53;;;16.61;64.17
11314;BME280;5712;48.858;9.206;2023-03-23T11:36:17;97621.69;;;16.62;65.07
11314;BME280;5712;48.858;9.206;2023-03-23T11:38:46;97602.25;;;16.69;63.95
11314;BME280;5712;48.858;9.206;2023-03-23T11:41:18;97608.88;;;16.91;64.26
11314;BME280;5712;48.858;9.206;2023-03-23T11:43:46;97601.44;;;17.02;64.04
11314;BME280;5712;48.858;9.206;2023-03-23T11:46:20;97600.97;;;17.07;63.31
11314;BME280;5712;48.858;9.206;2023-03-23T11:48:54;97609.88;;;17.15;63.43
11314;BME280;5712;48.858;9.206;2023-03-23T11:51:28;97602.63;;;17.33;62.90
11314;BME280;5712;48.858;9.206;2023-03-23T11:54:02;97603.41;;;17.26;62.34
11314;BME280;5712;48.858;9.206;2023-03-23T11:56:34;97606.50;;;17.39;62.49
11314;BME280;5712;48.858;9.206;2023-03-23T11:59:02;97597.28;;;17.33;62.21
11314;BME280;5712;48.858;9.206;2023-03-23T12:01:40;97598.84;;;17.44;62.77
11314;BME280;5712;48.858;9.206;2023-03-23T12:04:30;97579.34;;;17.51;59.46
11314;BME280;5712;48.858;9.206;2023-03-23T12:07:12;97588.97;;;17.44;60.10
11314;BME280;5712;48.858;9.206;2023-03-23T12:09:49;97584.28;;;17.38;60.13
11314;BME280;5712;48.858;9.206;2023-03-23T12:12:23;97583.22;;;17.31;59.46
11314;BME280;5712;48.858;9.206;2023-03-23T12:14:58;97574.44;;;17.39;59.27
11314;BME280;5712;48.858;9.206;2023-03-23T12:17:33;97561.75;;;17.41;57.22
11314;BME280;5712;48.858;9.206;2023-03-23T12:20:15;97552.84;;;17.32;57.25
11314;BME280;5712;48.858;9.206;2023-03-23T12:22:54;97567.94;;;17.41;57.88
11314;BME280;5712;48.858;9.206;2023-03-23T12:25:55;97561.81;;;17.65;57.17
11314;BME280;5712;48.858;9.206;2023-03-23T12:28:36;97565.16;;;17.59;57.38
11314;BME280;5712;48.858;9.206;2023-03-23T12:31:11;97583.69;;;17.60;58.96
11314;BME280;5712;48.858;9.206;2023-03-23T12:33:48;97588.84;;;17.54;60.74
11314;BME280;5712;48.858;9.206;2023-03-23T12:36:26;97581.56;;;17.30;61.55
11314;BME280;5712;48.858;9.206;2023-03-23T12:39:12;97586.91;;;17.30;62.09
11314;BME280;5712;48.858;9.206;2023-03-23T12:41:47;97589.25;;;17.33;62.79
11314;BME280;5712;48.858;9.206;2023-03-23T12:44:19;97583.00;;;17.50;62.43
11314;BME280;5712;48.858;9.206;2023-03-23T12:47:02;97583.81;;;17.09;63.63
11314;BME280;5712;48.858;9.206;2023-03-23T12:49:34;97584.19;;;17.22;63.80
11314;BME280;5712;48.858;9.206;2023-03-23T12:52:04;97583.31;;;17.39;63.02
11314;BME280;5712;48.858;9.206;2023-03-23T12:54:39;97577.38;;;17.36;63.41
11314;BME280;5712;48.858;9.206;2023-03-23T12:57:14;97569.06;;;17.31;63.48
11314;BME280;5712;48.858;9.206;2023-03-23T12:59:46;97579.34;;;17.18;64.38
11314;BME280;5712;48.858;9.206;2023-03-23T13:02:19;97571.22;;;17.27;63.93
11314;BME280;5712;48.858;9.206;2023-03-23T13:04:50;97567.56;;;17.03;64.04
11314;BME280;5712;48.858;9.206;2023-03-23T13:07:20;97559.94;;;17.08;63.58
11314;BME280;5712;48.858;9.206;2023-03-23T13:09:54;97559.94;;;17.08;63.61
11314;BME280;5712;48.858;9.206;2023-03-23T13:12:24;97556.03;;;17.02;64.51
11314;BME280;5712;48.858;9.206;2023-03-23T13:14:59;97557.78;;;17.11;64.39
11314;BME280;5712;48.858;9.206;2023-03-23T13:17:36;97541.50;;;17.30;62.93
11314;BME280;5712;48.858;9.206;2023-03-23T13:23:00;97534.84;;;17.34;63.03
11314;BME280;5712;48.858;9.206;2023-03-23T13:25:44;97541.19;;;17.33;63.03
11314;BME280;5712;48.858;9.206;2023-03-23T13:28:16;97548.25;;;17.42;63.17
11314;BME280;5712;48.858;9.206;2023-03-23T13:30:53;97532.88;;;17.44;63.68
11314;BME280;5712;48.858;9.206;2023-03-23T13:33:21;97525.03;;;17.43;62.51
11314;BME280;5712;48.858;9.206;2023-03-23T13:35:49;97527.88;;;17.49;62.98
11314;BME280;5712;48.858;9.206;2023-03-23T13:38:20;97532.56;;;17.55;63.21